Taylors Island, Maryland
Current Conditions -  °F | °C
As of 4:52 PM on Sunday 23 Nov 2014 (Local Time) from KNHK Reporting Station
Overcast Overcast  
Wind Chill: 10°   Ceiling: 25000
Heat Index: 10°   Visibility: 10mi
Dew Point:   Wind: 8mph
Humidity: 80%   Direction: 150°SSE
Pressure: 30.1"   Gusts: NA
Location:  38.47°N, 76.3°W
Report Text: KNHK 232152Z 15007KT 10SM FEW055 SCT110 OVC250 10/07 A3010 RMK AO2 SLP194 T01000067
Loading
Personal Weather Stations






























Interactive Weather Map New forecast layout! Learn more

10-Day Weather Forecast

Advertisements
Track Severe Weather on mobile